Time;durP1;ratioP1;P1;durP2;ratioP2;P2;SDS_P1;SDS_P2;PMS_P1;PMS_P2;Temp;Humidity;BMP_temperature;BMP_pressure;BME280_temperature;BME280_humidity;BME280_pressure;Samples;Min_cycle;Max_cycle;Signal;HPM_P1;HPM_P2
2021/04/05 00:00:38;;;;;;;41.17;20.95;;;;;;;6.37;63.90;100257.75;6237073;23;20031;-82
2021/04/05 00:03:04;;;;;;;42.08;21.00;;;;;;;6.35;63.93;100252.53;6239199;23;20021;-81
2021/04/05 00:05:33;;;;;;;45.20;22.20;;;;;;;6.31;64.89;100251.75;6239812;23;20350;-86
2021/04/05 00:08:02;;;;;;;;;;;;;;;6.29;64.58;100247.47;6240674;23;20040;-85
2021/04/05 00:10:37;;;;;;;44.03;20.85;;;;;;;6.23;64.77;100245.88;6240393;23;19919;-84
2021/04/05 00:13:08;;;;;;;45.05;22.35;;;;;;;6.17;64.83;100243.44;6240463;23;20029;-84
2021/04/05 00:15:36;;;;;;;41.38;21.42;;;;;;;6.21;65.14;100241.59;6238472;23;20028;-80
2021/04/05 00:18:05;;;;;;;43.63;22.30;;;;;;;6.17;64.88;100226.81;6237695;23;20028;-83
2021/04/05 00:20:38;;;;;;;46.75;23.48;;;;;;;6.13;65.02;100215.56;6232345;23;20076;-83
2021/04/05 00:23:04;;;;;;;46.17;23.08;;;;;;;6.15;65.42;100211.06;6229337;23;20100;-82
2021/04/05 00:25:31;;;;;;;50.10;24.65;;;;;;;6.11;65.29;100209.47;6232237;23;20029;-84
2021/04/05 00:28:00;;;;;;;51.05;24.02;;;;;;;6.09;64.86;100192.88;6234448;23;20031;-84
2021/04/05 00:30:31;;;;;;;50.28;23.85;;;;;;;6.09;64.70;100178.88;6237964;23;20273;-84
2021/04/05 00:32:57;;;;;;;57.92;24.73;;;;;;;6.06;64.68;100171.09;6238163;23;20012;-84
2021/04/05 00:35:25;;;;;;;49.30;23.42;;;;;;;6.03;64.58;100155.41;6239431;23;20012;-83
2021/04/05 00:37:52;;;;;;;48.13;22.88;;;;;;;5.99;64.79;100167.78;6240965;23;20122;-82
2021/04/05 00:40:27;;;;;;;48.60;23.52;;;;;;;6.01;64.89;100173.84;6239680;23;20035;-86
2021/04/05 00:42:53;;;;;;;46.65;23.80;;;;;;;6.07;64.77;100172.81;6242110;23;20031;-85
2021/04/05 00:45:20;;;;;;;49.53;23.50;;;;;;;6.09;64.89;100158.72;6240208;23;20015;-82
2021/04/05 00:47:52;;;;;;;50.78;24.15;;;;;;;5.95;64.99;100138.13;6214882;23;20025;-85
2021/04/05 00:50:21;;;;;;;47.78;24.13;;;;;;;5.89;65.48;100140.09;6240577;23;20036;-85
2021/04/05 00:52:52;;;;;;;49.35;24.48;;;;;;;5.86;65.27;100127.88;6235263;23;20035;-84
2021/04/05 00:55:22;;;;;;;44.50;24.02;;;;;;;5.86;65.76;100133.13;6236194;23;20028;-83
2021/04/05 00:57:48;;;;;;;47.80;23.58;;;;;;;5.86;65.16;100122.63;6236650;23;20012;-84
2021/04/05 01:00:19;;;;;;;41.78;22.17;;;;;;;5.81;65.80;100119.28;6209884;23;20020;-85
2021/04/05 01:02:48;;;;;;;50.38;22.65;;;;;;;5.84;65.50;100127.06;6229598;23;20048;-84
2021/04/05 01:05:14;;;;;;;47.45;22.58;;;;;;;5.79;66.12;100125.50;6225061;23;20025;-84
2021/04/05 01:07:41;;;;;;;43.70;21.63;;;;;;;5.75;66.09;100110.72;6233237;23;20028;-83
2021/04/05 01:10:11;;;;;;;43.83;22.38;;;;;;;5.65;65.92;100104.94;6233649;23;20063;-85
2021/04/05 01:12:40;;;;;;;47.92;22.75;;;;;;;5.64;66.52;100114.56;6229381;23;20075;-84
2021/04/05 01:15:11;;;;;;;43.95;22.02;;;;;;;5.53;66.84;100093.00;6228517;23;20025;-84
2021/04/05 01:17:37;;;;;;;42.58;21.23;;;;;;;5.50;66.32;100093.13;6225420;23;20071;-84
2021/04/05 01:20:14;;;;;;;43.90;21.80;;;;;;;5.45;67.06;100081.03;6201066;23;20012;-84
2021/04/05 01:22:44;;;;;;;43.60;21.05;;;;;;;5.49;67.20;100085.31;6224227;23;20025;-85
2021/04/05 01:25:14;;;;;;;45.15;21.92;;;;;;;5.49;66.81;100085.31;6218989;23;20103;-84
2021/04/05 01:27:42;;;;;;;49.22;22.48;;;;;;;5.50;67.22;100089.66;6215516;23;20025;-84
2021/04/05 01:30:28;;;;;;;50.80;23.58;;;;;;;5.48;67.23;100087.06;6224570;23;20024;-83
2021/04/05 01:33:07;;;;;;;47.28;22.98;;;;;;;5.44;67.25;100088.06;6222078;23;20047;-84
2021/04/05 01:35:44;;;;;;;49.80;24.95;;;;;;;5.39;67.55;100068.09;6220516;23;20028;-84
2021/04/05 01:38:14;;;;;;;52.55;24.23;;;;;;;5.40;67.08;100069.81;6217945;23;20028;-85
2021/04/05 01:40:49;;;;;;;54.00;24.95;;;;;;;5.37;67.52;100051.53;6215218;23;20509;-85
2021/04/05 01:43:16;;;;;;;51.20;24.85;;;;;;;5.35;67.51;100040.22;6214285;23;20059;-85
2021/04/05 01:45:43;;;;;;;57.92;26.38;;;;;;;5.32;67.79;100029.81;6217190;23;20032;-83
2021/04/05 01:48:10;;;;;;;60.50;26.10;;;;;;;5.16;67.79;100013.69;6215061;23;20017;-84
2021/04/05 01:50:37;;;;;;;54.72;26.20;;;;;;;5.16;68.22;100008.44;6217751;23;20481;-82
2021/04/05 01:53:05;;;;;;;55.42;25.00;;;;;;;5.14;68.41;100013.72;6216448;23;20021;-85
2021/04/05 01:55:34;;;;;;;53.67;25.30;;;;;;;5.10;69.00;99995.50;6212330;23;20103;-85
2021/04/05 01:58:02;;;;;;;51.78;24.15;;;;;;;5.08;68.51;99987.66;6190632;23;20060;-85
2021/04/05 02:00:37;;;;;;;50.97;22.92;;;;;;;5.06;68.69;99972.88;6187681;23;20040;-86
2021/04/05 02:03:09;;;;;;;46.17;23.15;;;;;;;5.06;68.69;99972.88;6216737;23;20028;-84
2021/04/05 02:05:37;;;;;;;46.10;22.52;;;;;;;5.12;69.29;99978.78;6217314;23;20493;-85
2021/04/05 02:08:07;;;;;;;51.40;22.60;;;;;;;5.16;68.82;99980.44;6219283;23;20496;-86
2021/04/05 02:10:36;;;;;;;47.90;23.00;;;;;;;5.08;68.33;99969.28;6218635;23;20048;-84
2021/04/05 02:13:04;;;;;;;51.95;23.85;;;;;;;5.13;68.76;99977.03;6215429;23;20059;-84
2021/04/05 02:15:33;;;;;;;51.53;23.38;;;;;;;5.14;68.92;99965.63;6217282;23;20080;-85
2021/04/05 02:17:59;;;;;;;50.78;24.13;;;;;;;5.14;69.01;99961.25;6219140;23;20028;-84
2021/04/05 02:20:26;;;;;;;50.15;24.27;;;;;;;5.12;68.96;99947.31;6221658;23;20028;-84
2021/04/05 02:22:54;;;;;;;55.65;26.08;;;;;;;5.11;69.16;99926.34;6220729;23;20040;-84
2021/04/05 02:25:22;;;;;;;50.65;24.63;;;;;;;5.12;69.40;99925.44;6221195;23;20191;-83
2021/04/05 02:27:51;;;;;;;56.78;25.35;;;;;;;5.16;69.31;99925.31;6217425;23;20080;-86
2021/04/05 02:30:24;;;;;;;52.53;24.45;;;;;;;5.22;69.48;99919.84;6220048;23;20036;-85
2021/04/05 02:33:00;;;;;;;53.92;24.92;;;;;;;5.26;69.31;99915.34;6230099;23;20024;-85
2021/04/05 02:35:28;;;;;;;48.55;24.65;;;;;;;5.26;69.38;99905.72;6240318;23;20088;-83
2021/04/05 02:37:56;;;;;;;49.55;23.85;;;;;;;5.16;69.51;99892.94;6231467;23;20024;-83
2021/04/05 02:40:23;;;;;;;51.03;24.33;;;;;;;5.15;69.97;99897.34;6217683;23;20053;-84
2021/04/05 02:42:53;;;;;;;47.58;24.13;;;;;;;5.11;70.12;99893.09;6225076;23;20020;-86
2021/04/05 02:45:21;;;;;;;44.60;22.77;;;;;;;5.10;70.35;99886.13;6230666;23;20021;-84
2021/04/05 02:47:54;;;;;;;44.08;21.38;;;;;;;5.15;69.68;99883.34;6219810;23;20029;-83
2021/04/05 02:50:22;;;;;;;49.25;24.55;;;;;;;5.16;70.21;99885.06;6215468;23;20546;-84
2021/04/05 02:52:49;;;;;;;50.38;24.20;;;;;;;5.16;70.05;99887.69;6213453;23;20047;-85
2021/04/05 02:55:16;;;;;;;46.67;22.92;;;;;;;5.13;69.94;99888.66;6189492;23;20028;-86
2021/04/05 03:01:29;;;;;;;49.65;22.77;;;;;;;5.16;69.46;99864.94;6216180;23;20011;-84
2021/04/05 03:03:58;;;;;;;46.35;21.80;;;;;;;5.13;69.85;99854.53;6191713;23;20323;-83
2021/04/05 03:06:27;;;;;;;48.47;23.85;;;;;;;5.15;69.43;99854.50;6214342;23;20561;-84
2021/04/05 03:08:54;;;;;;;51.58;22.58;;;;;;;5.11;69.28;99842.38;6217493;23;20044;-85
2021/04/05 03:11:24;;;;;;;42.30;21.55;;;;;;;5.15;69.21;99844.00;6217501;23;20108;-84
2021/04/05 03:13:51;;;;;;;47.20;22.85;;;;;;;5.14;69.06;99853.63;6214889;23;20068;-84
2021/04/05 03:16:19;;;;;;;52.53;22.50;;;;;;;5.10;69.10;99849.38;6193598;23;20082;-83
2021/04/05 03:18:46;;;;;;;45.50;22.67;;;;;;;5.08;69.15;99848.56;6219353;23;20095;-84
2021/04/05 03:21:14;;;;;;;48.45;22.33;;;;;;;5.06;69.36;99849.53;6216061;23;20020;-84
2021/04/05 03:23:43;;;;;;;51.53;22.90;;;;;;;4.98;69.18;99831.44;6214952;23;20040;-83
2021/04/05 03:26:09;;;;;;;49.08;22.30;;;;;;;4.90;69.51;99825.56;6217678;23;20020;-83
2021/04/05 03:28:35;;;;;;;47.53;22.38;;;;;;;4.86;70.02;99826.59;6218736;23;20087;-84
2021/04/05 03:31:18;;;;;;;52.47;23.15;;;;;;;4.84;70.31;99828.41;6226139;23;20021;-82
2021/04/05 03:34:12;;;;;;;46.05;21.55;;;;;;;4.83;69.94;99837.19;6236329;23;20020;-83
2021/04/05 03:36:42;;;;;;;45.92;21.10;;;;;;;4.81;70.62;99833.75;6232773;23;20039;-82
2021/04/05 03:39:13;;;;;;;50.40;22.85;;;;;;;4.79;70.08;99831.16;6209612;23;20036;-82
2021/04/05 03:41:53;;;;;;;44.08;22.08;;;;;;;4.80;70.54;99824.16;6239376;23;20020;-81
2021/04/05 03:44:41;;;;;;;45.17;21.50;;;;;;;4.78;70.99;99810.22;6238456;23;20020;-83
2021/04/05 03:47:33;;;;;;;47.42;22.45;;;;;;;4.75;70.71;99794.59;6239336;23;20016;-82
2021/04/05 03:50:18;;;;;;;48.00;22.05;;;;;;;4.72;70.78;99784.22;6239945;23;20032;-85
2021/04/05 03:52:50;;;;;;;49.00;22.10;;;;;;;4.73;70.61;99781.53;6223443;23;20095;-82
2021/04/05 03:55:20;;;;;;;47.80;23.38;;;;;;;4.75;70.50;99784.09;6220229;23;20016;-83
2021/04/05 03:57:51;;;;;;;54.22;23.95;;;;;;;4.76;70.30;99765.69;6223591;23;20013;-84
2021/04/05 04:00:20;;;;;;;44.40;22.20;;;;;;;4.77;70.20;99756.91;6228768;23;20039;-83
2021/04/05 04:02:53;;;;;;;52.13;23.23;;;;;;;4.75;70.59;99729.88;6241077;23;20020;-83
2021/04/05 04:05:28;;;;;;;49.42;23.88;;;;;;;4.85;70.44;99735.69;6234552;23;20035;-82
2021/04/05 04:08:05;;;;;;;50.10;23.10;;;;;;;4.82;69.68;99725.28;6226719;23;20024;-83
2021/04/05 04:10:33;;;;;;;49.40;22.60;;;;;;;4.83;70.01;99721.75;6239640;23;20024;-83
2021/04/05 04:13:11;;;;;;;49.55;22.92;;;;;;;4.93;69.98;99713.50;6232847;23;20035;-80
2021/04/05 04:15:40;;;;;;;50.83;23.27;;;;;;;4.94;69.39;99699.47;6198816;23;20068;-81
2021/04/05 04:18:10;;;;;;;50.35;23.23;;;;;;;4.95;69.72;99705.59;6219816;23;20064;-81
2021/04/05 04:20:37;;;;;;;50.10;23.17;;;;;;;4.79;69.82;99678.19;6226474;23;20017;-82
2021/04/05 04:23:05;;;;;;;45.33;22.65;;;;;;;4.88;70.13;99696.19;6229348;23;20032;-83
2021/04/05 04:25:32;;;;;;;46.88;23.05;;;;;;;4.87;70.21;99695.38;6223063;23;20076;-82
2021/04/05 04:27:59;;;;;;;50.72;22.80;;;;;;;4.85;69.98;99699.81;6224962;23;20019;-82
2021/04/05 04:30:32;;;;;;;44.70;20.83;;;;;;;4.92;69.74;99684.69;6220371;23;20829;-84
2021/04/05 04:33:10;;;;;;;43.95;22.55;;;;;;;4.93;70.20;99683.78;6214142;23;20004;-85
2021/04/05 04:35:40;;;;;;;50.08;23.42;;;;;;;4.95;69.89;99671.47;6217930;23;20028;-84
2021/04/05 04:38:06;;;;;;;42.53;21.58;;;;;;;4.98;69.84;99670.53;6212711;23;20096;-83
2021/04/05 04:40:35;;;;;;;39.03;20.95;;;;;;;4.99;69.98;99680.09;6217754;23;20055;-85
2021/04/05 04:43:04;;;;;;;49.97;21.58;;;;;;;4.98;69.14;99674.00;6207360;23;20016;-86
2021/04/05 04:45:31;;;;;;;49.60;21.65;;;;;;;5.00;70.22;99661.69;6233979;23;20012;-86
2021/04/05 04:47:59;;;;;;;47.65;20.77;;;;;;;4.98;69.43;99650.38;6235893;23;20012;-86
2021/04/05 04:50:28;;;;;;;40.60;20.95;;;;;;;4.96;70.27;99657.44;6210393;23;20009;-86
2021/04/05 04:52:54;;;;;;;47.60;21.20;;;;;;;4.88;70.18;99651.59;6227423;23;20040;-84
2021/04/05 04:55:25;;;;;;;43.95;19.95;;;;;;;4.79;69.97;99641.44;6224317;23;20032;-83
2021/04/05 04:57:58;;;;;;;38.30;19.98;;;;;;;4.74;70.23;99630.25;6217437;23;20386;-85
2021/04/05 05:00:27;;;;;;;40.88;19.35;;;;;;;4.73;70.45;99637.28;6215949;23;20024;-85
2021/04/05 05:02:55;;;;;;;48.97;20.52;;;;;;;4.73;70.87;99633.78;6218241;23;20039;-85
2021/04/05 05:05:27;;;;;;;49.70;21.77;;;;;;;4.75;71.18;99638.06;6215919;23;20044;-83
2021/04/05 05:07:54;;;;;;;40.25;20.35;;;;;;;4.74;71.49;99627.63;6214639;23;20016;-84
2021/04/05 05:10:21;;;;;;;44.10;21.90;;;;;;;4.73;71.31;99623.28;6216834;23;20107;-83
2021/04/05 05:12:47;;;;;;;42.95;20.88;;;;;;;4.80;71.66;99627.44;6218287;23;20480;-84
2021/04/05 05:15:16;;;;;;;38.38;19.92;;;;;;;4.74;71.49;99611.91;6219292;23;20028;-84
2021/04/05 05:17:45;;;;;;;41.25;20.52;;;;;;;4.80;71.63;99609.06;6192260;23;20119;-85
2021/04/05 05:20:12;;;;;;;39.80;20.50;;;;;;;4.77;71.57;99611.78;6218051;23;20016;-84
2021/04/05 05:22:53;;;;;;;39.85;19.30;;;;;;;4.84;71.93;99615.94;6193011;23;20048;-85
2021/04/05 05:25:21;;;;;;;41.03;19.92;;;;;;;4.91;71.62;99612.16;6219222;23;20048;-84
2021/04/05 05:28:01;;;;;;;44.72;19.58;;;;;;;4.87;71.14;99606.19;6220025;23;20323;-84
2021/04/05 05:30:28;;;;;;;45.85;20.27;;;;;;;4.89;72.04;99612.19;6218776;23;20024;-86
2021/04/05 05:32:55;;;;;;;38.30;18.50;;;;;;;5.00;71.46;99605.72;6226084;23;20016;-86
2021/04/05 05:35:25;;;;;;;35.33;18.98;;;;;;;5.05;71.05;99601.16;6227682;23;20349;-84
2021/04/05 05:37:52;;;;;;;37.40;19.70;;;;;;;5.07;71.00;99594.94;6236138;23;20025;-85
2021/04/05 05:40:24;;;;;;;41.03;18.73;;;;;;;5.05;70.86;99603.78;6237916;23;20042;-83
2021/04/05 05:43:11;;;;;;;41.10;19.75;;;;;;;5.05;71.49;99596.75;6237468;23;20008;-84
2021/04/05 05:45:52;;;;;;;34.13;18.30;;;;;;;5.03;71.24;99576.75;6240030;23;20016;-83
2021/04/05 05:48:38;;;;;;;;;;;;;;;5.08;71.63;99583.53;6237297;23;20028;-83
2021/04/05 05:51:44;;;;;;;40.83;17.83;;;;;;;5.15;70.85;99582.41;6226859;23;19951;-83
2021/04/05 05:54:52;;;;;;;39.72;17.20;;;;;;;5.23;70.80;99575.06;6222589;23;20032;-84
2021/04/05 05:57:28;;;;;;;32.20;16.27;;;;;;;5.35;70.66;99568.53;6220272;23;20358;-86
2021/04/05 06:00:05;;;;;;;30.48;15.98;;;;;;;5.45;70.78;99569.84;6234240;23;20020;-83
2021/04/05 06:03:05;;;;;;;35.30;16.70;;;;;;;5.52;70.10;99573.09;6209152;23;20036;-83
2021/04/05 06:06:00;;;;;;;32.50;15.73;;;;;;;5.61;70.08;99578.84;6235620;23;20016;-83
2021/04/05 06:09:04;;;;;;;32.90;16.17;;;;;;;5.71;69.52;99574.06;6228172;23;20028;-82
2021/04/05 06:12:03;;;;;;;32.75;15.77;;;;;;;5.80;69.91;99570.22;6223133;23;20474;-83
2021/04/05 06:14:43;;;;;;;29.13;14.02;;;;;;;5.88;69.03;99561.13;6189276;23;20032;-84
2021/04/05 06:17:26;;;;;;;37.97;14.15;;;;;;;5.98;68.79;99544.06;6221117;23;20032;-85
2021/04/05 06:19:57;;;;;;;27.92;12.35;;;;;;;6.10;68.18;99565.50;6221686;23;20047;-83
2021/04/05 06:22:26;;;;;;;27.17;13.65;;;;;;;6.19;67.37;99573.00;6225694;23;20082;-83
2021/04/05 06:25:29;;;;;;;35.03;13.88;;;;;;;6.27;67.37;99570.91;6218494;23;20044;-82
2021/04/05 06:28:04;;;;;;;26.80;13.60;;;;;;;6.43;67.11;99577.22;6187655;23;20024;-83
2021/04/05 06:30:42;;;;;;;32.15;14.32;;;;;;;6.52;66.55;99576.81;6213888;23;20520;-83
2021/04/05 06:33:11;;;;;;;22.67;12.52;;;;;;;6.55;66.41;99576.69;6215120;23;20067;-83
2021/04/05 06:36:11;;;;;;;25.27;13.13;;;;;;;6.60;66.59;99561.56;6212446;23;20106;-84
2021/04/05 06:38:45;;;;;;;31.80;13.63;;;;;;;6.69;65.60;99569.03;6187344;23;20103;-83
2021/04/05 06:41:34;;;;;;;29.38;13.60;;;;;;;6.82;65.72;99576.38;6214641;23;20059;-83
2021/04/05 06:44:24;;;;;;;28.42;14.30;;;;;;;6.83;64.96;99567.56;6217921;23;20055;-84
2021/04/05 06:47:09;;;;;;;29.73;12.93;;;;;;;6.85;65.45;99560.47;6207138;23;20008;-85
2021/04/05 06:49:52;;;;;;;30.30;13.15;;;;;;;6.90;64.77;99550.59;6236544;23;20032;-83
2021/04/05 06:52:32;;;;;;;29.23;14.23;;;;;;;6.94;64.40;99554.78;6208123;23;20107;-84
2021/04/05 06:55:20;;;;;;;29.40;13.45;;;;;;;6.99;64.29;99544.91;6222670;23;20072;-84
2021/04/05 06:58:00;;;;;;;29.20;13.20;;;;;;;7.07;64.47;99545.41;6230922;23;20024;-85
2021/04/05 07:00:49;;;;;;;27.92;13.40;;;;;;;7.09;63.96;99550.59;6236399;23;20020;-84
2021/04/05 07:03:53;;;;;;;26.65;13.65;;;;;;;7.09;64.12;99556.72;6234808;23;20048;-84
2021/04/05 07:06:47;;;;;;;30.02;14.50;;;;;;;7.09;64.43;99556.72;6223876;23;20023;-84
2021/04/05 07:09:54;;;;;;;29.35;14.07;;;;;;;7.03;64.19;99554.38;6235459;23;20012;-83
2021/04/05 07:12:40;;;;;;;35.00;14.60;;;;;;;7.02;64.23;99555.28;6205558;23;20028;-83
2021/04/05 07:15:26;;;;;;;28.08;13.40;;;;;;;7.01;64.60;99556.22;6212877;23;20025;-83
2021/04/05 07:18:32;;;;;;;30.17;14.73;;;;;;;7.04;64.24;99550.81;6225505;23;20034;-83
2021/04/05 07:21:05;;;;;;;26.60;13.13;;;;;;;7.02;64.63;99550.03;6221958;23;20086;-83
2021/04/05 07:23:36;;;;;;;29.27;14.32;;;;;;;7.08;64.61;99546.28;6198122;23;20031;-84
2021/04/05 07:26:17;;;;;;;25.88;14.63;;;;;;;7.06;65.02;99545.50;6222094;23;20032;-84
2021/04/05 07:28:50;;;;;;;;;;;;;;;7.12;64.47;99538.13;6223186;23;20040;-83
2021/04/05 07:31:34;;;;;;;32.63;15.13;;;;;;;7.20;64.70;99528.13;6232997;23;19930;-83
2021/04/05 07:34:16;;;;;;;27.15;14.10;;;;;;;7.25;64.20;99525.25;6238360;23;20024;-83
2021/04/05 07:36:52;;;;;;;29.23;15.18;;;;;;;7.30;64.19;99520.63;6232447;23;20032;-82
2021/04/05 07:39:40;;;;;;;26.95;14.45;;;;;;;7.37;64.01;99503.63;6225200;23;20067;-84
2021/04/05 07:42:38;;;;;;;33.85;15.85;;;;;;;7.42;63.79;99495.47;6237952;23;20035;-86
2021/04/05 07:45:15;;;;;;;35.45;16.13;;;;;;;7.48;63.98;99500.47;6233648;23;20031;-84
2021/04/05 07:48:08;;;;;;;33.75;15.65;;;;;;;7.55;63.33;99501.88;6227970;23;20040;-84
2021/04/05 07:51:27;;;;;;;35.40;16.75;;;;;;;7.59;62.70;99496.38;6223414;23;20025;-84
2021/04/05 07:54:06;;;;;;;34.20;16.20;;;;;;;7.60;63.09;99492.81;6083813;23;20019;-83
2021/04/05 07:56:38;;;;;;;33.85;17.23;;;;;;;7.74;62.50;99494.75;6087610;23;20023;-85
2021/04/05 07:59:32;;;;;;;32.35;16.90;;;;;;;7.88;62.42;99494.06;6188470;23;20023;-83
2021/04/05 08:02:25;;;;;;;35.03;17.17;;;;;;;8.00;61.88;99496.97;6225583;23;20294;-83
2021/04/05 08:05:26;;;;;;;31.60;16.23;;;;;;;8.10;61.42;99487.63;6164621;23;20105;-84
2021/04/05 08:08:18;;;;;;;31.48;16.90;;;;;;;8.20;61.48;99482.72;6198122;23;20044;-82
2021/04/05 08:11:07;;;;;;;33.05;17.30;;;;;;;8.44;62.21;99472.72;6223141;23;20025;-83
2021/04/05 08:13:34;;;;;;;36.70;18.05;;;;;;;8.58;60.24;99469.34;6221325;23;20031;-84
2021/04/05 08:16:14;;;;;;;35.53;17.60;;;;;;;8.62;61.97;99477.03;6224505;23;20024;-85
2021/04/05 08:19:15;;;;;;;33.75;18.40;;;;;;;8.76;59.62;99463.94;6226204;23;20063;-86
2021/04/05 08:22:05;;;;;;;33.65;18.15;;;;;;;8.79;59.89;99462.94;6222303;23;20024;-87
2021/04/05 08:24:57;;;;;;;33.63;18.20;;;;;;;8.63;59.74;99455.00;6223215;23;20377;-85
2021/04/05 08:27:51;;;;;;;34.45;18.67;;;;;;;8.64;60.07;99454.06;6224717;23;20081;-84
2021/04/05 08:30:25;;;;;;;36.05;18.45;;;;;;;8.57;59.97;99443.91;6220479;23;20112;-85
2021/04/05 08:33:07;;;;;;;32.25;18.25;;;;;;;8.50;60.56;99451.28;6219508;23;20020;-84
2021/04/05 08:35:49;;;;;;;33.33;17.55;;;;;;;8.40;61.04;99458.84;6224924;23;20082;-84
2021/04/05 08:38:42;;;;;;;34.15;18.33;;;;;;;8.38;60.96;99460.72;6220743;23;20033;-84
2021/04/05 08:41:36;;;;;;;37.63;18.25;;;;;;;8.49;60.38;99462.78;6225705;23;20012;-85
2021/04/05 08:44:24;;;;;;;32.72;16.67;;;;;;;8.54;60.23;99457.25;6209386;23;20021;-86
2021/04/05 08:47:01;;;;;;;32.75;18.10;;;;;;;8.56;60.31;99456.25;6201181;23;20021;-86
2021/04/05 08:49:30;;;;;;;34.42;17.67;;;;;;;8.60;60.09;99452.50;6200903;23;20082;-85
2021/04/05 08:52:22;;;;;;;40.10;18.40;;;;;;;8.57;59.88;99455.31;6228294;23;20031;-85
2021/04/05 08:54:54;;;;;;;30.17;17.48;;;;;;;8.57;60.48;99463.22;6232567;23;20021;-85
2021/04/05 08:57:50;;;;;;;39.03;18.73;;;;;;;8.51;60.28;99460.03;6233234;23;20025;-83
2021/04/05 09:00:17;;;;;;;33.13;18.40;;;;;;;8.44;60.54;99457.75;6225752;23;20024;-84
2021/04/05 09:02:55;;;;;;;33.58;17.73;;;;;;;8.38;60.63;99460.72;6194054;23;20020;-84
2021/04/05 09:05:27;;;;;;;35.42;18.52;;;;;;;8.37;60.44;99440.53;6220765;23;20047;-85
2021/04/05 09:08:16;;;;;;;35.08;18.73;;;;;;;8.33;60.93;99446.06;6202328;23;20299;-85
2021/04/05 09:11:15;;;;;;;38.35;18.58;;;;;;;8.19;61.35;99427.44;6234232;23;20104;-85
2021/04/05 09:14:01;;;;;;;41.00;18.38;;;;;;;8.18;61.51;99438.94;6230188;23;20020;-88
2021/04/05 09:17:18;;;;;;;34.05;18.67;;;;;;;8.12;61.58;99431.34;6235642;23;20027;-84
2021/04/05 09:20:12;;;;;;;33.35;18.52;;;;;;;8.03;61.95;99425.59;6224332;23;20013;-86
2021/04/05 09:23:11;;;;;;;38.80;18.30;;;;;;;7.98;62.27;99425.00;6227003;23;20082;-87
2021/04/05 09:26:03;;;;;;;35.85;18.55;;;;;;;7.95;62.88;99422.50;6195333;23;20077;-84
2021/04/05 09:28:51;;;;;;;30.98;17.63;;;;;;;7.87;63.16;99427.31;6217241;23;20025;-85
2021/04/05 09:31:32;;;;;;;38.55;19.13;;;;;;;7.95;63.00;99425.16;6219358;23;20861;-85
2021/04/05 09:34:23;;;;;;;37.55;19.45;;;;;;;7.95;62.98;99433.06;6219242;23;20550;-86
2021/04/05 09:37:20;;;;;;;32.40;18.42;;;;;;;7.97;63.33;99428.56;6222799;23;20048;-84
2021/04/05 09:40:14;;;;;;;30.38;18.05;;;;;;;8.24;65.11;99433.31;6229480;23;20051;-84
2021/04/05 09:43:15;;;;;;;33.28;17.17;;;;;;;8.56;65.20;99432.50;6210358;23;20032;-83
2021/04/05 09:46:02;;;;;;;33.97;18.33;;;;;;;8.63;62.90;99409.28;6199673;23;20025;-85
2021/04/05 09:48:57;;;;;;;33.08;18.27;;;;;;;8.79;62.07;99421.56;6196869;23;20084;-84
2021/04/05 09:51:43;;;;;;;39.05;17.80;;;;;;;8.72;61.68;99420.16;6222164;23;20024;-84
2021/04/05 09:54:41;;;;;;;33.22;17.27;;;;;;;8.61;61.85;99417.28;6224315;23;20087;-85
2021/04/05 09:57:41;;;;;;;33.92;17.30;;;;;;;8.57;61.97;99415.72;6205277;23;20025;-83
2021/04/05 10:00:14;;;;;;;33.35;18.30;;;;;;;8.55;62.21;99414.97;6136951;23;20025;-86
2021/04/05 10:03:26;;;;;;;29.85;15.65;;;;;;;8.52;62.24;99396.66;6197212;23;20047;-85
2021/04/05 10:06:06;;;;;;;29.75;15.65;;;;;;;8.39;62.64;99392.97;6224444;23;20020;-87
2021/04/05 10:08:37;;;;;;;31.27;14.55;;;;;;;8.35;62.79;99389.63;6226273;23;20032;-86
2021/04/05 10:11:42;;;;;;;24.17;14.68;;;;;;;8.37;62.78;99373.72;6223441;23;20047;-84
2021/04/05 10:14:15;;;;;;;30.67;15.50;;;;;;;8.49;62.83;99394.19;6231143;23;20017;-86
2021/04/05 10:16:58;;;;;;;27.95;14.30;;;;;;;8.35;62.53;99396.69;6224285;23;20029;-88
2021/04/05 10:20:12;;;;;;;27.65;15.02;;;;;;;8.47;62.97;99413.69;6191947;23;20024;-87
2021/04/05 10:22:47;;;;;;;26.73;15.13;;;;;;;8.40;63.06;99403.44;6237015;23;20020;-86
2021/04/05 10:25:20;;;;;;;27.83;14.82;;;;;;;8.39;63.83;99395.63;6238583;23;20068;-86
2021/04/05 10:27:48;;;;;;;26.88;14.70;;;;;;;8.46;64.40;99411.97;6236600;23;20063;-85
2021/04/05 10:30:15;;;;;;;27.65;14.02;;;;;;;8.50;64.48;99393.22;6204241;23;20024;-85
2021/04/05 10:33:23;;;;;;;25.98;13.48;;;;;;;8.43;65.44;99394.53;6225962;23;20023;-85
2021/04/05 10:36:13;;;;;;;23.75;14.07;;;;;;;8.29;66.58;99375.91;6226196;23;20025;-86
2021/04/05 10:38:44;;;;;;;29.02;14.73;;;;;;;8.42;66.38;99395.44;6228052;23;20481;-86
2021/04/05 10:41:34;;;;;;;;;;;;;;;;;;;;;
2021/04/05 10:44:35;;;;;;;33.72;14.27;;;;;;;8.47;67.44;99382.03;6201279;23;20033;-86
2021/04/05 10:47:18;;;;;;;26.50;13.13;;;;;;;8.48;67.03;99379.31;6228267;23;20083;-87
2021/04/05 10:50:14;;;;;;;22.85;12.77;;;;;;;8.40;67.52;99374.44;6228764;23;20107;-85
2021/04/05 10:52:49;;;;;;;25.65;12.98;;;;;;;8.22;68.08;99361.34;6227813;23;20051;-86
2021/04/05 10:55:53;;;;;;;24.20;12.90;;;;;;;8.16;69.13;99372.25;6229083;23;20092;-84
2021/04/05 10:58:53;;;;;;;25.65;14.32;;;;;;;7.99;70.05;99366.06;6226501;23;20023;-85
2021/04/05 11:01:49;;;;;;;29.60;14.27;;;;;;;7.86;71.74;99364.16;6206296;23;20020;-87
2021/04/05 11:04:36;;;;;;;25.10;14.30;;;;;;;8.03;72.05;99393.09;6232286;23;20035;-85
2021/04/05 11:07:11;;;;;;;27.83;14.07;;;;;;;7.91;72.97;99373.50;6230484;23;20032;-86
2021/04/05 11:09:53;;;;;;;25.70;14.38;;;;;;;8.00;73.28;99386.22;6234491;23;20021;-86
2021/04/05 11:12:23;;;;;;;22.63;12.75;;;;;;;8.04;72.63;99390.38;6235683;23;20023;-83
2021/04/05 11:14:52;;;;;;;20.08;12.50;;;;;;;8.07;73.36;99392.88;6236284;23;20028;-85
2021/04/05 11:17:22;;;;;;;24.55;13.60;;;;;;;8.12;72.84;99389.16;6237655;23;20015;-86
2021/04/05 11:19:53;;;;;;;22.93;12.03;;;;;;;7.94;72.96;99373.34;6210212;23;20019;-86
2021/04/05 11:22:28;;;;;;;23.30;12.25;;;;;;;8.01;72.84;99393.22;6239105;23;20016;-84
2021/04/05 11:25:05;;;;;;;19.95;11.63;;;;;;;7.90;74.01;99395.53;6216502;23;20009;-83
2021/04/05 11:27:56;;;;;;;21.95;11.45;;;;;;;7.82;73.67;99396.88;6239287;23;20008;-88
2021/04/05 11:30:33;;;;;;;19.52;11.02;;;;;;;7.50;74.37;99375.66;6206505;23;20032;-87
2021/04/05 11:33:09;;;;;;;16.95;10.25;;;;;;;7.61;74.02;99388.28;6240129;23;20012;-87
2021/04/05 11:35:44;;;;;;;17.83;10.52;;;;;;;7.56;73.28;99385.00;6237729;23;20021;-87
2021/04/05 11:38:33;;;;;;;17.23;10.82;;;;;;;7.54;74.72;99395.66;6237622;23;20048;-85
2021/04/05 11:41:10;;;;;;;20.10;10.52;;;;;;;7.53;75.33;99393.09;6210441;23;20020;-84
2021/04/05 11:43:47;;;;;;;19.08;11.07;;;;;;;7.63;74.80;99410.13;6212929;23;20009;-85
2021/04/05 11:46:16;;;;;;;20.13;10.25;;;;;;;7.66;74.64;99416.09;6211658;23;20016;-82
2021/04/05 11:48:44;;;;;;;18.88;10.43;;;;;;;7.65;75.25;99418.81;6226789;23;20097;-82
2021/04/05 11:51:22;;;;;;;17.67;9.33;;;;;;;7.62;75.17;99418.97;6220152;23;20378;-82
2021/04/05 11:53:58;;;;;;;13.23;8.27;;;;;;;7.62;73.96;99424.22;6220498;23;20031;-85
2021/04/05 11:56:29;;;;;;;14.23;7.95;;;;;;;7.60;74.02;99428.72;6216680;23;20560;-83
2021/04/05 11:58:58;;;;;;;12.55;6.90;;;;;;;7.66;73.50;99436.34;6219733;23;20021;-85
2021/04/05 12:01:35;;;;;;;11.00;6.82;;;;;;;7.66;73.16;99441.59;6221046;23;20533;-84
2021/04/05 12:04:14;;;;;;;10.50;6.10;;;;;;;7.64;72.99;99432.91;6225811;23;20027;-84
2021/04/05 12:06:56;;;;;;;10.27;5.53;;;;;;;7.61;73.07;99454.13;6237942;23;20017;-83
2021/04/05 12:09:28;;;;;;;5.25;4.03;;;;;;;7.66;71.39;99452.13;6236176;23;20020;-84
2021/04/05 12:12:02;;;;;;;5.57;3.17;;;;;;;7.59;69.58;99471.81;6239159;23;20020;-85
2021/04/05 12:14:31;;;;;;;3.40;2.22;;;;;;;7.51;69.70;99456.38;6232274;23;20024;-84
2021/04/05 12:17:02;;;;;;;4.28;2.15;;;;;;;7.49;69.15;99454.75;6195735;23;20461;-84
2021/04/05 12:19:36;;;;;;;2.92;1.50;;;;;;;7.40;68.13;99474.47;6223052;23;20078;-85